Time;durP1;ratioP1;P1;durP2;ratioP2;P2;SDS_P1;SDS_P2;PMS_P1;PMS_P2;Temp;Humidity;BMP_temperature;BMP_pressure;BME280_temperature;BME280_humidity;BME280_pressure;Samples;Min_cycle;Max_cycle;Signal;HPM_P1;HPM_P2
2022/11/28 00:01:24;;;;;;;1.23;1.23;;;5.60;89.30;4.70;95769.00;;;;5033682;28;20204;-55
2022/11/28 00:03:51;;;;;;;1.43;1.33;;;5.60;89.20;4.70;95756.00;;;;5033740;28;20227;-54
2022/11/28 00:06:18;;;;;;;1.77;1.67;;;5.60;88.80;4.70;95757.00;;;;5033647;28;20675;-57
2022/11/28 00:08:47;;;;;;;1.67;1.57;;;5.60;88.10;4.80;95752.00;;;;5033591;28;20312;-54
2022/11/28 00:11:15;;;;;;;2.20;1.77;;;5.70;87.00;4.80;95750.00;;;;5033724;28;20197;-55
2022/11/28 00:13:43;;;;;;;0.80;0.80;;;5.70;86.50;4.90;95735.00;;;;5033630;28;20276;-55
2022/11/28 00:16:15;;;;;;;2.53;1.63;;;5.70;85.80;4.90;95751.00;;;;5033671;28;20224;-54
2022/11/28 00:18:41;;;;;;;1.63;1.53;;;5.80;84.40;5.00;95753.00;;;;5033520;28;20202;-54
2022/11/28 00:21:11;;;;;;;1.73;1.63;;;5.80;82.00;4.90;95743.00;;;;5033515;28;20203;-56
2022/11/28 00:23:38;;;;;;;1.73;1.63;;;5.90;80.10;5.00;95742.00;;;;5033396;28;20220;-55
2022/11/28 00:26:08;;;;;;;1.00;1.00;;;5.90;79.10;5.00;95741.00;;;;5032742;28;20196;-54
2022/11/28 00:28:37;;;;;;;2.40;1.90;;;5.90;79.10;5.10;95741.00;;;;5033313;28;20239;-54
2022/11/28 00:31:05;;;;;;;2.33;1.80;;;6.00;78.30;5.10;95736.00;;;;5015958;28;20278;-54
2022/11/28 00:33:32;;;;;;;1.73;1.57;;;5.90;78.40;4.90;95717.00;;;;5016018;28;20309;-55
2022/11/28 00:36:00;;;;;;;1.73;1.63;;;5.90;77.70;5.00;95725.00;;;;5033432;28;20205;-55
2022/11/28 00:38:27;;;;;;;1.70;1.60;;;5.80;78.30;4.90;95737.00;;;;5015878;28;20201;-55
2022/11/28 00:41:01;;;;;;;1.53;1.43;;;5.80;78.70;4.80;95738.00;;;;5033224;28;20233;-54
2022/11/28 00:43:29;;;;;;;1.13;1.13;;;5.80;79.00;4.70;95729.00;;;;5033176;28;20226;-55
2022/11/28 00:45:58;;;;;;;1.07;1.03;;;5.70;80.20;4.60;95725.00;;;;5033174;28;20196;-55
2022/11/28 00:48:25;;;;;;;3.10;2.00;;;5.60;80.20;4.50;95707.00;;;;5033208;28;20216;-54
2022/11/28 00:50:53;;;;;;;1.63;1.53;;;5.50;81.70;4.50;95723.00;;;;5033245;28;20200;-55
2022/11/28 00:53:19;;;;;;;1.70;1.60;;;5.50;83.00;4.50;95720.00;;;;5033203;28;20231;-54
2022/11/28 00:55:45;;;;;;;1.30;1.30;;;5.40;84.40;4.50;95711.00;;;;5033071;28;20216;-55
2022/11/28 00:58:14;;;;;;;1.33;1.33;;;5.40;85.80;4.50;95709.00;;;;5033206;28;20262;-55
2022/11/28 01:00:41;;;;;;;1.93;1.83;;;5.40;86.30;4.50;95707.00;;;;5035691;28;20201;-54
2022/11/28 01:03:08;;;;;;;2.60;2.03;;;5.40;86.50;4.50;95699.00;;;;5036625;28;20215;-57
2022/11/28 01:05:40;;;;;;;1.97;1.83;;;5.40;85.80;4.50;95697.00;;;;5036654;28;20250;-57
2022/11/28 01:08:09;;;;;;;3.53;1.87;;;5.40;85.30;4.50;95715.00;;;;5036741;28;20518;-56
2022/11/28 01:10:41;;;;;;;1.90;1.77;;;5.50;85.40;4.50;95691.00;;;;5036588;28;20199;-56
2022/11/28 01:13:07;;;;;;;1.60;1.50;;;5.40;85.30;4.40;95693.00;;;;5036561;28;20521;-55
2022/11/28 01:15:34;;;;;;;2.30;2.10;;;5.40;85.70;4.50;95707.00;;;;5036407;28;20266;-54
2022/11/28 01:18:01;;;;;;;1.93;1.83;;;5.50;86.40;4.40;95719.00;;;;5036184;28;20684;-56
2022/11/28 01:20:30;;;;;;;1.23;1.23;;;5.40;87.00;4.40;95724.00;;;;5036299;28;20695;-54
2022/11/28 01:22:57;;;;;;;1.40;1.40;;;5.40;87.50;4.40;95716.00;;;;5036186;28;20196;-54
2022/11/28 01:25:23;;;;;;;4.23;3.20;;;5.30;87.80;4.40;95708.00;;;;5036321;28;20285;-54
2022/11/28 01:27:50;;;;;;;2.63;2.40;;;5.40;88.50;4.40;95698.00;;;;5018710;28;20211;-54
2022/11/28 01:30:17;;;;;;;1.30;1.20;;;5.30;89.10;4.30;95696.00;;;;5036028;28;20237;-55
2022/11/28 01:32:45;;;;;;;1.20;1.20;;;5.30;89.70;4.30;95698.00;;;;5036062;28;20208;-54
2022/11/28 01:35:12;;;;;;;1.50;1.40;;;5.30;90.60;4.40;95700.00;;;;5018851;28;20633;-54
2022/11/28 01:37:39;;;;;;;1.47;1.40;;;5.30;91.20;4.40;95715.00;;;;5018594;28;20537;-54
2022/11/28 01:40:10;;;;;;;1.23;1.23;;;5.30;90.20;4.40;95698.00;;;;5018490;28;20661;-55
2022/11/28 01:42:37;;;;;;;2.60;1.80;;;5.30;90.40;4.40;95709.00;;;;5035847;28;20221;-54
2022/11/28 01:45:22;;;;;;;2.33;2.20;;;5.30;90.70;4.30;95691.00;;;;5035900;28;20197;-54
2022/11/28 01:47:57;;;;;;;2.40;2.20;;;5.30;91.30;4.30;95686.00;;;;5035798;28;20197;-55
2022/11/28 01:50:27;;;;;;;1.67;1.57;;;5.30;91.90;4.30;95676.00;;;;5035804;28;20239;-54
2022/11/28 01:52:59;;;;;;;1.90;1.53;;;5.20;92.30;4.30;95676.00;;;;5035789;28;20270;-54
2022/11/28 01:55:33;;;;;;;1.83;1.73;;;5.30;92.70;4.30;95663.00;;;;5035699;28;20229;-57
2022/11/28 01:57:59;;;;;;;1.50;1.50;;;5.20;93.00;4.30;95657.00;;;;5035793;28;20197;-56
2022/11/28 02:00:26;;;;;;;1.10;1.00;;;5.30;93.00;4.30;95629.00;;;;5035620;28;20220;-55
2022/11/28 02:03:01;;;;;;;1.53;1.43;;;5.30;93.10;4.30;95661.00;;;;5035567;28;20205;-54
2022/11/28 02:05:28;;;;;;;1.00;1.00;;;5.30;92.90;4.20;95658.00;;;;5018366;28;20222;-55
2022/11/28 02:07:54;;;;;;;2.73;1.87;;;5.20;93.00;4.20;95658.00;;;;5034677;28;20224;-57
2022/11/28 02:10:27;;;;;;;1.80;1.70;;;5.20;93.10;4.20;95657.00;;;;5035293;28;20231;-55
2022/11/28 02:13:30;;;;;;;1.33;1.33;;;5.20;92.90;4.10;95659.00;;;;5034868;28;20228;-55
2022/11/28 02:16:24;;;;;;;1.93;1.83;;;5.10;94.00;4.20;95639.00;;;;5035665;28;20782;-55
2022/11/28 02:19:11;;;;;;;1.43;1.33;;;5.20;93.80;4.20;95652.00;;;;5035357;28;20224;-54
2022/11/28 02:21:58;;;;;;;1.43;1.33;;;5.10;94.20;4.10;95647.00;;;;5035413;28;20208;-57
2022/11/28 02:24:59;;;;;;;1.67;1.57;;;5.10;94.60;4.10;95646.00;;;;5035325;28;20519;-56
2022/11/28 02:28:16;;;;;;;1.63;1.53;;;5.10;94.90;4.10;95652.00;;;;5021125;28;20220;-55
2022/11/28 02:31:01;;;;;;;1.57;1.47;;;5.10;94.90;4.10;95647.00;;;;5035252;28;20208;-54
2022/11/28 02:33:35;;;;;;;1.90;1.80;;;5.10;95.90;4.10;95636.00;;;;5035088;28;20204;-56
2022/11/28 02:36:11;;;;;;;1.80;1.67;;;5.00;95.30;4.10;95641.00;;;;5035038;28;20200;-54
2022/11/28 02:39:07;;;;;;;2.33;2.20;;;5.10;95.30;4.20;95631.00;;;;5035093;28;20232;-56
2022/11/28 02:41:44;;;;;;;1.10;1.10;;;5.10;95.30;4.10;95622.00;;;;5017715;28;20212;-56
2022/11/28 02:44:16;;;;;;;3.27;1.70;;;5.10;95.10;4.10;95616.00;;;;5035086;28;20247;-55
2022/11/28 02:46:55;;;;;;;1.73;1.63;;;5.10;95.30;4.10;95618.00;;;;5034938;28;20201;-54
2022/11/28 02:49:30;;;;;;;5.23;2.03;;;5.10;95.50;4.10;95618.00;;;;5034788;28;20236;-54
2022/11/28 02:52:04;;;;;;;1.90;1.73;;;5.00;95.40;4.10;95610.00;;;;5034904;28;20181;-56
2022/11/28 02:54:31;;;;;;;1.40;1.30;;;5.10;95.50;4.10;95625.00;;;;5035173;28;20302;-55
2022/11/28 02:56:58;;;;;;;1.57;1.47;;;5.10;95.40;4.10;95623.00;;;;5017879;28;20232;-60
2022/11/28 02:59:44;;;;;;;4.37;2.40;;;5.10;95.50;4.10;95611.00;;;;5034732;28;20211;-56
2022/11/28 03:02:18;;;;;;;1.83;1.73;;;5.10;95.70;4.10;95619.00;;;;5034668;28;20232;-54
2022/11/28 03:04:57;;;;;;;1.50;1.40;;;5.10;95.80;4.00;95614.00;;;;5017288;28;20230;-56
2022/11/28 03:07:55;;;;;;;3.13;1.70;;;5.00;95.70;4.00;95613.00;;;;5034716;28;20286;-56
2022/11/28 03:10:30;;;;;;;1.40;1.30;;;5.00;95.90;4.10;95602.00;;;;5034731;28;20286;-52
2022/11/28 03:13:14;;;;;;;1.23;1.23;;;5.00;95.40;4.10;95605.00;;;;5034609;28;20219;-53
2022/11/28 03:15:57;;;;;;;2.77;2.13;;;5.00;95.30;4.10;95610.00;;;;5017133;28;20620;-54
2022/11/28 03:18:31;;;;;;;2.33;2.00;;;5.00;95.20;4.10;95602.00;;;;5034413;28;20200;-54
2022/11/28 03:21:11;;;;;;;1.20;1.20;;;5.00;95.10;4.10;95613.00;;;;5034310;28;20229;-54
2022/11/28 03:23:47;;;;;;;0.90;0.90;;;5.00;95.00;4.10;95601.00;;;;5033152;28;20622;-54
2022/11/28 03:26:25;;;;;;;1.00;1.00;;;5.00;95.10;4.10;95596.00;;;;5034240;28;20221;-54
2022/11/28 03:29:01;;;;;;;2.33;1.70;;;5.00;95.10;4.10;95609.00;;;;5034268;28;20672;-56
2022/11/28 03:31:35;;;;;;;0.90;0.90;;;5.10;95.00;4.20;95603.00;;;;5034291;28;20196;-54
2022/11/28 03:34:07;;;;;;;3.43;1.93;;;5.10;95.00;4.10;95600.00;;;;5034217;28;20219;-55
2022/11/28 03:36:43;;;;;;;1.77;1.63;;;5.10;94.60;4.10;95605.00;;;;5034137;28;20212;-55
2022/11/28 03:39:15;;;;;;;2.60;1.47;;;5.10;94.80;4.10;95604.00;;;;5034137;28;20210;-54
2022/11/28 03:41:51;;;;;;;1.10;1.10;;;5.10;94.70;4.20;95595.00;;;;5034126;28;20210;-53
2022/11/28 03:44:26;;;;;;;1.37;1.33;;;5.10;94.60;4.10;95605.00;;;;5034023;28;20203;-54
2022/11/28 03:46:57;;;;;;;2.63;2.43;;;5.10;94.50;4.10;95599.00;;;;5033274;28;20232;-55
2022/11/28 03:49:29;;;;;;;2.37;2.17;;;5.10;95.60;4.10;95594.00;;;;5034034;28;20225;-54
2022/11/28 03:52:02;;;;;;;2.40;1.77;;;5.10;94.70;4.10;95582.00;;;;5033906;28;20231;-54
2022/11/28 03:54:36;;;;;;;1.47;1.37;;;5.10;94.70;4.10;95600.00;;;;5016600;28;20539;-54
2022/11/28 03:57:13;;;;;;;2.13;2.00;;;5.10;95.00;4.10;95586.00;;;;5032915;28;20321;-54
2022/11/28 03:59:46;;;;;;;1.20;1.20;;;5.00;94.80;4.10;95584.00;;;;5016637;28;20266;-54
2022/11/28 04:02:25;;;;;;;1.40;1.33;;;5.00;94.90;4.10;95582.00;;;;5016435;28;20255;-53
2022/11/28 04:05:01;;;;;;;2.77;2.57;;;5.00;94.90;4.10;95586.00;;;;5016488;28;20197;-55
2022/11/28 04:07:37;;;;;;;1.03;1.03;;;5.00;95.00;4.10;95582.00;;;;5033768;28;20631;-57
2022/11/28 04:10:14;;;;;;;1.80;1.40;;;5.00;95.10;4.10;95581.00;;;;5033583;28;20660;-55
2022/11/28 04:12:54;;;;;;;1.17;1.17;;;5.00;94.90;4.00;95586.00;;;;5033834;28;20231;-55
2022/11/28 04:15:29;;;;;;;1.30;1.30;;;5.00;94.80;4.00;95580.00;;;;5033644;28;20548;-55
2022/11/28 04:18:05;;;;;;;1.20;1.20;;;5.00;94.70;4.00;95571.00;;;;5033760;28;20567;-54
2022/11/28 04:20:42;;;;;;;1.67;1.57;;;4.90;94.80;4.00;95573.00;;;;5033675;28;20214;-55
2022/11/28 04:23:16;;;;;;;1.07;1.07;;;4.90;94.90;4.00;95563.00;;;;5033757;28;20212;-54
2022/11/28 04:25:50;;;;;;;1.13;1.13;;;5.00;95.30;4.00;95566.00;;;;5033547;28;20201;-55
2022/11/28 04:28:24;;;;;;;1.20;1.20;;;5.00;95.30;3.90;95574.00;;;;5033478;28;20224;-56
2022/11/28 04:30:55;;;;;;;1.60;1.53;;;4.90;95.20;3.80;95567.00;;;;5033435;28;20211;-54
2022/11/28 04:33:28;;;;;;;1.57;1.47;;;4.90;95.40;3.80;95568.00;;;;5033467;28;20232;-56
2022/11/28 04:35:56;;;;;;;1.63;1.57;;;4.80;95.70;3.90;95565.00;;;;5036415;28;20207;-54
2022/11/28 04:38:27;;;;;;;2.17;2.07;;;4.80;96.00;3.90;95567.00;;;;5036986;28;20729;-55
2022/11/28 04:41:02;;;;;;;1.43;1.37;;;4.80;96.10;3.60;95566.00;;;;5036978;28;20519;-54
2022/11/28 04:43:34;;;;;;;1.57;1.47;;;4.70;95.80;3.70;95562.00;;;;5037056;28;20274;-56
2022/11/28 04:46:08;;;;;;;1.80;1.67;;;4.70;96.20;3.70;95559.00;;;;5036750;28;20227;-55
2022/11/28 04:48:35;;;;;;;2.30;2.13;;;4.70;96.20;3.70;95568.00;;;;5036747;28;20314;-54
2022/11/28 04:51:14;;;;;;;1.83;1.73;;;4.70;96.50;3.70;95569.00;;;;5036686;28;20228;-55
2022/11/28 04:53:53;;;;;;;1.73;1.63;;;4.70;96.20;3.60;95571.00;;;;5036684;28;20628;-53
2022/11/28 04:56:28;;;;;;;2.87;2.10;;;4.60;96.40;3.70;95565.00;;;;5036640;28;20547;-54
2022/11/28 04:58:55;;;;;;;1.77;1.63;;;4.60;96.90;3.60;95569.00;;;;5036698;28;20202;-56
2022/11/28 05:01:26;;;;;;;0.87;0.87;;;4.60;97.00;3.70;95574.00;;;;5019058;28;20231;-54
2022/11/28 05:03:54;;;;;;;1.60;1.53;;;4.60;97.20;3.70;95579.00;;;;5036577;28;20234;-56
2022/11/28 05:06:26;;;;;;;0.70;0.70;;;4.70;96.70;3.80;95574.00;;;;5036372;28;20220;-54
2022/11/28 05:08:54;;;;;;;1.63;1.57;;;4.70;96.70;3.80;95580.00;;;;5036380;28;20220;-54
2022/11/28 05:11:20;;;;;;;1.97;1.87;;;4.70;96.40;3.80;95571.00;;;;5036318;28;20640;-54
2022/11/28 05:13:46;;;;;;;6.17;2.50;;;4.80;96.50;3.70;95576.00;;;;5036416;28;20193;-54
2022/11/28 05:16:14;;;;;;;1.10;1.10;;;4.70;96.40;3.60;95563.00;;;;5018772;28;20563;-55
2022/11/28 05:18:41;;;;;;;2.50;1.63;;;4.60;95.80;3.60;95570.00;;;;5018879;28;20636;-54
2022/11/28 05:21:10;;;;;;;1.40;1.30;;;4.60;96.60;3.70;95569.00;;;;5035159;28;20220;-56
2022/11/28 05:23:38;;;;;;;1.50;1.40;;;4.60;96.90;3.70;95577.00;;;;5019179;28;20770;-55
2022/11/28 05:26:06;;;;;;;1.73;1.40;;;4.70;97.00;3.70;95574.00;;;;5036265;28;20209;-56
2022/11/28 05:28:33;;;;;;;1.80;1.70;;;4.60;96.40;3.70;95583.00;;;;5036210;28;20228;-56
2022/11/28 05:31:01;;;;;;;2.57;1.97;;;4.70;96.70;3.70;95574.00;;;;5036164;28;20220;-57
2022/11/28 05:33:28;;;;;;;1.47;1.40;;;4.60;96.60;3.60;95586.00;;;;5036017;28;20694;-56
2022/11/28 05:35:55;;;;;;;1.97;1.87;;;4.60;96.70;3.70;95593.00;;;;5018548;28;20248;-56
2022/11/28 05:38:22;;;;;;;1.13;1.13;;;4.60;97.50;3.80;95584.00;;;;5035883;28;20209;-55
2022/11/28 05:40:48;;;;;;;1.33;1.33;;;4.70;98.50;3.70;95584.00;;;;5035969;28;20189;-57
2022/11/28 05:43:15;;;;;;;1.80;1.47;;;4.70;97.80;3.60;95587.00;;;;5035840;28;20220;-56
2022/11/28 05:45:44;;;;;;;2.40;1.50;;;4.60;97.80;3.60;95584.00;;;;5035856;28;20201;-55
2022/11/28 05:48:11;;;;;;;1.67;1.57;;;4.60;97.60;3.70;95578.00;;;;5035796;28;20220;-54
2022/11/28 05:50:39;;;;;;;2.07;1.93;;;4.60;97.40;3.70;95587.00;;;;5035828;28;20224;-55
2022/11/28 05:53:06;;;;;;;1.40;1.33;;;4.70;97.00;3.70;95575.00;;;;5018358;28;20225;-56
2022/11/28 05:55:32;;;;;;;1.10;1.07;;;4.60;96.90;3.70;95566.00;;;;5035751;28;20719;-55
2022/11/28 05:57:59;;;;;;;11.20;2.63;;;4.60;97.00;3.60;95567.00;;;;5018253;28;20240;-55
2022/11/28 06:00:26;;;;;;;1.93;1.83;;;4.60;96.80;3.60;95571.00;;;;5035634;28;20275;-54
2022/11/28 06:02:52;;;;;;;1.97;1.87;;;4.60;97.00;3.60;95566.00;;;;5035539;28;20228;-55
2022/11/28 06:05:19;;;;;;;1.40;1.30;;;4.50;96.90;3.50;95577.00;;;;5018019;28;20299;-56
2022/11/28 06:07:45;;;;;;;3.93;1.47;;;4.50;97.00;3.40;95563.00;;;;5035314;28;20216;-57
2022/11/28 06:10:11;;;;;;;1.77;1.67;;;4.50;97.20;3.40;95569.00;;;;5018321;28;20224;-55
2022/11/28 06:12:38;;;;;;;1.03;1.03;;;4.40;97.60;3.50;95562.00;;;;5035464;28;20656;-54
2022/11/28 06:15:06;;;;;;;1.40;1.40;;;4.40;97.80;3.50;95566.00;;;;5035342;28;20521;-55
2022/11/28 06:17:33;;;;;;;1.93;1.80;;;4.50;98.20;3.50;95564.00;;;;5035198;28;20224;-55
2022/11/28 06:19:59;;;;;;;1.53;1.43;;;4.50;98.20;3.50;95562.00;;;;5035014;28;20193;-54
2022/11/28 06:22:26;;;;;;;1.23;1.23;;;4.50;98.20;3.50;95560.00;;;;5035214;28;20225;-54
2022/11/28 06:24:52;;;;;;;1.90;1.80;;;4.50;98.30;3.50;95561.00;;;;5035312;28;20208;-56
2022/11/28 06:27:19;;;;;;;2.40;1.57;;;4.60;98.40;3.50;95556.00;;;;5035031;28;20613;-56
2022/11/28 06:29:45;;;;;;;1.17;1.17;;;4.50;98.50;3.60;95558.00;;;;5035004;28;20228;-55
2022/11/28 06:32:11;;;;;;;1.20;1.13;;;4.50;98.60;3.60;95559.00;;;;5035117;28;20224;-56
2022/11/28 06:34:38;;;;;;;1.53;1.43;;;4.60;98.10;3.60;95561.00;;;;5035296;28;20253;-55
2022/11/28 06:37:05;;;;;;;1.40;1.30;;;4.50;97.90;3.50;95554.00;;;;5035145;28;20227;-54
2022/11/28 06:39:31;;;;;;;1.17;1.17;;;4.50;98.10;3.40;95571.00;;;;5035000;28;20196;-55
2022/11/28 06:41:58;;;;;;;1.50;1.43;;;4.40;97.90;3.40;95573.00;;;;5034999;28;20227;-55
2022/11/28 06:44:24;;;;;;;3.57;2.07;;;4.40;98.20;3.40;95572.00;;;;5017587;28;20548;-55
2022/11/28 06:46:51;;;;;;;1.70;1.60;;;4.40;98.50;3.40;95570.00;;;;5034919;28;20193;-55
2022/11/28 06:49:19;;;;;;;1.57;1.47;;;4.40;98.40;3.40;95587.00;;;;5034735;28;20366;-57
2022/11/28 06:51:46;;;;;;;4.57;2.30;;;4.40;98.00;3.40;95592.00;;;;5034801;28;20586;-55
2022/11/28 06:54:15;;;;;;;1.07;1.07;;;4.40;98.40;3.40;95597.00;;;;5034624;28;20656;-55
2022/11/28 06:56:42;;;;;;;1.20;1.20;;;4.40;98.50;3.40;95599.00;;;;5034528;28;20217;-55
2022/11/28 06:59:11;;;;;;;1.50;1.40;;;4.40;98.80;3.40;95597.00;;;;5034312;28;20224;-55
2022/11/28 07:01:38;;;;;;;1.20;1.20;;;4.40;98.70;3.40;95602.00;;;;5034609;28;20702;-55
2022/11/28 07:04:04;;;;;;;1.00;1.00;;;4.40;98.70;3.50;95595.00;;;;5034577;28;20221;-54
2022/11/28 07:06:33;;;;;;;1.73;1.63;;;4.50;99.00;3.50;95598.00;;;;5034601;28;20201;-54
2022/11/28 07:09:00;;;;;;;1.73;1.63;;;4.50;98.60;3.50;95592.00;;;;5017234;28;20251;-54
2022/11/28 07:11:30;;;;;;;3.90;1.73;;;4.50;98.20;3.40;95588.00;;;;5034504;28;20223;-54
2022/11/28 07:14:00;;;;;;;2.53;2.33;;;4.40;98.50;3.50;95592.00;;;;5034474;28;20224;-54
2022/11/28 07:16:29;;;;;;;1.97;1.87;;;4.50;98.70;3.60;95585.00;;;;5034382;28;20590;-55
2022/11/28 07:18:59;;;;;;;1.80;1.70;;;4.50;98.40;3.80;95578.00;;;;5034494;28;20517;-55
2022/11/28 07:21:26;;;;;;;1.30;1.10;;;4.60;97.70;3.80;95595.00;;;;5034474;28;20197;-55
2022/11/28 07:23:53;;;;;;;1.83;1.67;;;4.80;96.50;3.80;95586.00;;;;5034185;28;20664;-54
2022/11/28 07:26:21;;;;;;;5.13;1.50;;;4.70;96.60;3.90;95592.00;;;;5034197;28;20207;-56
2022/11/28 07:28:48;;;;;;;2.50;1.77;;;4.80;96.50;3.90;95608.00;;;;5033999;28;20231;-54
2022/11/28 07:31:18;;;;;;;1.70;1.60;;;4.80;96.50;3.80;95593.00;;;;5034220;28;20196;-55
2022/11/28 07:33:47;;;;;;;1.80;1.70;;;4.80;95.90;3.80;95589.00;;;;5034068;28;20222;-56
2022/11/28 07:36:17;;;;;;;1.57;1.50;;;4.80;95.80;3.70;95599.00;;;;5034091;28;20217;-55
2022/11/28 07:38:46;;;;;;;3.33;2.23;;;4.70;95.80;3.70;95602.00;;;;5033974;28;20236;-55
2022/11/28 07:41:14;;;;;;;4.20;2.87;;;4.60;96.20;3.70;95598.00;;;;5016685;28;20236;-61
2022/11/28 07:43:46;;;;;;;2.23;2.07;;;4.60;96.60;3.80;95601.00;;;;5016751;28;20204;-61
2022/11/28 07:46:17;;;;;;;2.73;2.53;;;4.70;97.10;3.80;95610.00;;;;5033821;28;20230;-57
2022/11/28 07:48:46;;;;;;;1.63;1.53;;;4.70;97.10;3.80;95586.00;;;;5033695;28;20200;-56
2022/11/28 07:51:18;;;;;;;1.83;1.73;;;4.70;97.30;3.80;95600.00;;;;5033786;28;20247;-55
2022/11/28 07:53:45;;;;;;;2.13;1.87;;;4.80;97.20;3.80;95597.00;;;;5033894;28;20258;-55
2022/11/28 07:56:18;;;;;;;1.00;1.00;;;4.80;97.40;3.90;95608.00;;;;5033794;28;20204;-54
2022/11/28 07:58:47;;;;;;;2.10;1.63;;;4.80;97.50;3.80;95605.00;;;;5033735;28;20201;-54
2022/11/28 08:01:18;;;;;;;15.80;7.20;;;4.80;97.10;3.80;95600.00;;;;5033739;28;20212;-55
2022/11/28 08:03:46;;;;;;;3.37;2.17;;;4.80;97.40;4.10;95605.00;;;;5033752;28;20224;-55
2022/11/28 08:06:17;;;;;;;1.23;1.23;;;4.90;98.70;4.20;95613.00;;;;5033696;28;20213;-55
2022/11/28 08:08:45;;;;;;;5.13;1.73;;;5.10;99.60;4.50;95619.00;;;;5015341;28;20610;-54
2022/11/28 08:11:14;;;;;;;0.90;0.90;;;5.30;99.90;4.80;95613.00;;;;5033476;28;20330;-61
2022/11/28 08:13:40;;;;;;;1.20;1.20;;;5.50;99.90;4.80;95610.00;;;;5033511;28;20247;-55
2022/11/28 08:16:12;;;;;;;1.97;1.53;;;5.60;99.90;5.00;95613.00;;;;5033611;28;20211;-55
2022/11/28 08:18:38;;;;;;;1.67;1.57;;;5.80;99.90;5.00;95617.00;;;;5033549;28;20201;-55
2022/11/28 08:21:08;;;;;;;1.63;1.53;;;5.90;99.60;5.20;95608.00;;;;5033409;28;20213;-55
2022/11/28 08:23:35;;;;;;;1.37;1.27;;;6.00;99.40;5.20;95611.00;;;;5033438;28;20245;-55
2022/11/28 08:26:03;;;;;;;1.67;1.57;;;6.00;98.90;5.20;95609.00;;;;5033360;28;20291;-55
2022/11/28 08:28:30;;;;;;;1.17;1.17;;;6.10;97.60;5.30;95604.00;;;;5033410;28;20473;-55
2022/11/28 08:31:00;;;;;;;1.73;1.63;;;6.20;97.50;5.20;95613.00;;;;5033310;28;20231;-55
2022/11/28 08:33:28;;;;;;;1.00;1.00;;;6.10;96.20;5.40;95609.00;;;;5033304;28;20197;-54
2022/11/28 08:35:54;;;;;;;1.70;1.43;;;6.20;96.60;5.30;95618.00;;;;5033309;28;20197;-55
2022/11/28 08:38:20;;;;;;;1.07;1.07;;;6.20;96.20;5.30;95618.00;;;;5033221;28;20227;-55
2022/11/28 08:40:49;;;;;;;2.33;2.13;;;6.20;95.30;5.30;95613.00;;;;5033232;28;20266;-56
2022/11/28 08:43:16;;;;;;;2.03;1.93;;;6.20;94.20;5.30;95599.00;;;;5033183;28;20205;-56
2022/11/28 08:45:43;;;;;;;4.23;2.07;;;6.30;94.50;5.30;95593.00;;;;5033176;28;20201;-55
2022/11/28 08:48:10;;;;;;;1.40;1.40;;;6.20;94.30;5.40;95590.00;;;;5033144;28;20636;-56
2022/11/28 08:50:37;;;;;;;0.70;0.70;;;6.20;94.90;5.20;95593.00;;;;5033023;28;20228;-56
2022/11/28 08:53:05;;;;;;;3.20;1.33;;;6.20;93.20;5.10;95595.00;;;;5033126;28;20527;-54
2022/11/28 08:55:32;;;;;;;1.03;1.03;;;6.00;94.00;5.00;95605.00;;;;5033035;28;20307;-55
2022/11/28 08:58:01;;;;;;;1.50;1.40;;;6.00;94.20;5.10;95605.00;;;;5033064;28;20234;-55
2022/11/28 09:00:27;;;;;;;2.23;1.23;;;6.00;94.50;5.00;95606.00;;;;5033001;28;20193;-55
2022/11/28 09:02:54;;;;;;;1.00;1.00;;;5.90;94.40;4.90;95611.00;;;;5032943;28;20277;-55
2022/11/28 09:05:20;;;;;;;1.60;1.50;;;5.90;94.40;4.80;95605.00;;;;5032940;28;20343;-55
2022/11/28 09:07:49;;;;;;;1.37;1.27;;;5.70;94.90;4.70;95616.00;;;;5032769;28;20225;-54
2022/11/28 09:10:16;;;;;;;1.77;1.67;;;5.70;95.60;4.70;95622.00;;;;5032715;28;20220;-55
2022/11/28 09:12:42;;;;;;;3.70;1.80;;;5.70;96.00;4.70;95615.00;;;;5032786;28;20230;-55
2022/11/28 09:15:09;;;;;;;2.37;2.17;;;5.70;96.80;4.80;95606.00;;;;5032942;28;20593;-55
2022/11/28 09:17:36;;;;;;;0.70;0.70;;;5.70;97.00;5.00;95616.00;;;;5033090;28;20196;-56
2022/11/28 09:20:06;;;;;;;1.60;1.50;;;5.90;97.10;5.10;95611.00;;;;5032951;28;20615;-55
2022/11/28 09:22:33;;;;;;;1.63;1.53;;;5.90;96.70;5.20;95617.00;;;;5036232;28;20243;-55
2022/11/28 09:25:00;;;;;;;1.13;1.13;;;6.00;96.00;5.40;95634.00;;;;5035934;28;20224;-55
2022/11/28 09:27:26;;;;;;;0.93;0.93;;;6.20;95.60;5.50;95613.00;;;;5036087;28;20192;-55
2022/11/28 09:29:53;;;;;;;1.60;1.50;;;6.30;95.40;5.60;95628.00;;;;5035907;28;20243;-54
2022/11/28 09:32:19;;;;;;;0.90;0.90;;;6.40;95.40;5.60;95618.00;;;;5036123;28;20196;-56
2022/11/28 09:34:46;;;;;;;2.03;1.77;;;6.50;95.20;5.80;95615.00;;;;5035960;28;20282;-55
2022/11/28 09:37:15;;;;;;;7.00;2.53;;;6.60;94.50;5.90;95614.00;;;;5035863;28;20274;-55
2022/11/28 09:39:41;;;;;;;0.90;0.90;;;6.70;94.30;5.90;95621.00;;;;5035841;28;20212;-56
2022/11/28 09:42:16;;;;;;;5.53;1.77;;;6.80;93.90;6.00;95607.00;;;;5036075;28;20537;-56
2022/11/28 09:44:49;;;;;;;0.83;0.83;;;6.80;94.00;6.10;95614.00;;;;5035884;28;20204;-55
2022/11/28 09:47:24;;;;;;;1.43;1.10;;;6.90;94.20;6.20;95609.00;;;;5018540;28;20257;-56
2022/11/28 09:49:57;;;;;;;3.50;2.13;;;7.00;94.10;6.20;95623.00;;;;5018440;28;20223;-56
2022/11/28 09:52:33;;;;;;;0.90;0.90;;;7.10;94.10;6.30;95622.00;;;;5035887;28;20274;-56
2022/11/28 09:55:14;;;;;;;1.27;1.23;;;7.10;93.50;6.30;95610.00;;;;5018347;28;20226;-57
2022/11/28 09:57:46;;;;;;;1.03;0.90;;;7.10;93.60;6.40;95602.00;;;;5035856;28;20215;-55
2022/11/28 10:00:17;;;;;;;1.30;1.30;;;7.20;93.70;6.40;95610.00;;;;5035648;28;20231;-55
2022/11/28 10:03:02;;;;;;;0.80;0.80;;;7.20;93.50;6.40;95608.00;;;;5035655;28;20265;-55
2022/11/28 10:05:40;;;;;;;1.97;1.80;;;7.20;92.90;6.40;95609.00;;;;5035514;28;20552;-55
2022/11/28 10:08:24;;;;;;;1.50;1.40;;;7.30;93.40;6.30;95611.00;;;;5035585;28;20210;-55
2022/11/28 10:11:02;;;;;;;1.60;1.50;;;7.20;94.20;6.40;95604.00;;;;5035352;28;20231;-54
2022/11/28 10:13:45;;;;;;;0.87;0.87;;;7.30;94.00;6.50;95605.00;;;;5018023;28;20218;-55
2022/11/28 10:16:20;;;;;;;1.60;1.50;;;7.30;93.80;6.50;95607.00;;;;5017827;28;20596;-55
2022/11/28 10:18:53;;;;;;;1.03;1.03;;;7.40;92.60;6.60;95598.00;;;;5035250;28;20212;-55
2022/11/28 10:21:30;;;;;;;0.70;0.70;;;7.40;92.50;6.60;95604.00;;;;5035416;28;20225;-55
2022/11/28 10:24:05;;;;;;;1.07;1.07;;;7.40;92.50;6.60;95597.00;;;;5035363;28;20208;-58
2022/11/28 10:26:38;;;;;;;1.00;1.00;;;7.40;91.90;6.60;95577.00;;;;5035596;28;20195;-56
2022/11/28 10:29:28;;;;;;;1.00;1.00;;;7.40;92.30;6.60;95604.00;;;;5017855;28;20331;-61
2022/11/28 10:32:01;;;;;;;1.27;1.17;;;7.40;92.70;6.60;95595.00;;;;5034411;28;20219;-59
2022/11/28 10:34:40;;;;;;;1.53;1.43;;;7.40;93.00;6.60;95598.00;;;;5035042;28;20255;-54
2022/11/28 10:37:18;;;;;;;2.10;2.00;;;7.50;93.00;6.60;95586.00;;;;5035141;28;20237;-55
2022/11/28 10:39:45;;;;;;;2.00;1.53;;;7.50;93.40;6.60;95588.00;;;;5034318;28;20803;-55
2022/11/28 10:42:21;;;;;;;1.50;1.40;;;7.50;93.20;6.60;95588.00;;;;5034868;28;20200;-55
2022/11/28 10:45:02;;;;;;;0.90;0.90;;;7.40;93.00;6.50;95577.00;;;;5034818;28;20571;-54
2022/11/28 10:48:06;;;;;;;1.60;1.50;;;7.40;93.20;6.50;95582.00;;;;5035120;28;20216;-55
2022/11/28 10:50:46;;;;;;;0.90;0.90;;;7.30;93.60;6.40;95580.00;;;;5034722;28;20212;-55
2022/11/28 10:53:28;;;;;;;1.37;1.37;;;7.30;94.00;6.40;95590.00;;;;5034818;28;20200;-55
2022/11/28 10:56:10;;;;;;;1.33;1.27;;;7.20;94.20;6.50;95589.00;;;;5034805;28;20211;-56
2022/11/28 10:58:51;;;;;;;2.83;2.13;;;7.30;94.80;6.50;95585.00;;;;5034638;28;20228;-55
2022/11/28 11:01:18;;;;;;;1.97;1.87;;;7.30;94.90;6.60;95583.00;;;;5034719;28;20199;-54
2022/11/28 11:03:44;;;;;;;1.20;1.07;;;7.40;95.20;6.70;95586.00;;;;5034512;28;20228;-55
2022/11/28 11:06:11;;;;;;;1.10;1.10;;;7.50;95.50;6.60;95583.00;;;;5034584;28;20208;-54
2022/11/28 11:08:40;;;;;;;2.20;2.00;;;7.50;95.30;6.50;95586.00;;;;5034481;28;20229;-54
2022/11/28 11:11:23;;;;;;;1.70;1.50;;;7.40;95.40;6.50;95586.00;;;;5034419;28;20279;-54
2022/11/28 11:14:00;;;;;;;2.23;1.77;;;7.40;96.20;6.50;95578.00;;;;5034616;28;20253;-57
2022/11/28 11:16:47;;;;;;;3.43;1.60;;;7.40;96.60;6.60;95587.00;;;;5017198;28;20204;-60
2022/11/28 11:19:25;;;;;;;1.17;1.17;;;7.40;96.60;6.60;95586.00;;;;5034354;28;20204;-54
2022/11/28 11:22:05;;;;;;;2.23;1.87;;;7.50;97.00;6.70;95581.00;;;;5034348;28;20714;-54
2022/11/28 11:24:32;;;;;;;1.37;1.13;;;7.50;97.50;6.70;95575.00;;;;5034330;28;20681;-54
2022/11/28 11:27:13;;;;;;;2.20;1.63;;;7.60;97.30;6.70;95566.00;;;;5034260;28;20228;-54
2022/11/28 11:29:40;;;;;;;0.97;0.97;;;7.60;97.30;6.70;95577.00;;;;5034104;28;20675;-55